Uhta, Russia
Current Conditions -  °F | °C
As of 9:30 AM on Saturday 01 Nov 2014 (Local Time) from UUYY Reporting Station
Broken Clouds Broken Clouds  
Wind Chill: 23°   Ceiling: 20000
Heat Index: 28°   Visibility: 6mi
Dew Point: 21°   Wind: 4mph
Humidity: 74%   Direction: NA
Pressure: 29.91"   Gusts: NA
Location:  63.56°N, 53.69°E
Report Text: UUYY 010630Z VRB02MPS 9999 SCT040 BKN200 M02/M06 Q1013 NOSIG0145//35 RMK QFE751/1001
Loading
Personal Weather Stations






























Interactive Weather Map
Tropical Storm Tracking
New forecast layout! Learn more

10-Day Weather Forecast

Advertisements
Track Severe Weather on mobile